Time;durP1;ratioP1;P1;durP2;ratioP2;P2;SDS_P1;SDS_P2;PMS_P1;PMS_P2;Temp;Humidity;BMP_temperature;BMP_pressure;BME280_temperature;BME280_humidity;BME280_pressure;Samples;Min_cycle;Max_cycle;Signal;HPM_P1;HPM_P2
2023/05/22 00:02:04;;;;;;;9.73;6.65;;;;;;;-140.66;100.00;55571.53;5095199;28;20043;-76
2023/05/22 00:04:50;;;;;;;10.88;7.07;;;;;;;-140.66;100.00;55571.53;5095103;28;20031;-76
2023/05/22 00:07:37;;;;;;;9.27;6.47;;;;;;;-140.66;100.00;55571.53;5095812;28;20088;-78
2023/05/22 00:10:23;;;;;;;7.72;6.25;;;;;;;-140.66;100.00;55571.53;5094853;28;20368;-75
2023/05/22 00:13:09;;;;;;;9.18;6.45;;;;;;;-140.66;100.00;55571.53;5094888;28;20036;-76
2023/05/22 00:15:55;;;;;;;8.10;6.00;;;;;;;-140.66;100.00;55571.53;5094143;28;20085;-76
2023/05/22 00:18:41;;;;;;;8.10;6.63;;;;;;;-140.66;100.00;55571.53;5094391;28;20032;-76
2023/05/22 00:21:33;;;;;;;8.15;6.07;;;;;;;-140.66;100.00;55571.53;5094383;28;20028;-76
2023/05/22 00:24:19;;;;;;;10.20;6.43;;;;;;;-140.66;100.00;55571.53;5093780;28;20031;-76
2023/05/22 00:27:05;;;;;;;6.80;5.93;;;;;;;-140.66;100.00;55571.53;5096305;28;20030;-76
2023/05/22 00:29:50;;;;;;;8.90;6.20;;;;;;;-140.66;100.00;55571.53;5114083;28;20042;-76
2023/05/22 00:32:36;;;;;;;8.65;6.00;;;;;;;-140.66;100.00;55571.53;5114674;28;20027;-77
2023/05/22 00:35:22;;;;;;;8.00;6.15;;;;;;;-140.66;100.00;55571.53;5099904;28;20035;-76
2023/05/22 00:38:08;;;;;;;8.48;6.50;;;;;;;-140.66;100.00;55571.53;5114949;28;20024;-77
2023/05/22 00:40:54;;;;;;;8.43;5.88;;;;;;;-140.66;100.00;55571.53;5114279;28;20329;-76
2023/05/22 00:43:40;;;;;;;10.43;6.80;;;;;;;-140.66;100.00;55571.53;5115121;28;20054;-76
2023/05/22 00:46:26;;;;;;;10.88;6.45;;;;;;;-140.66;100.00;55571.53;5099629;28;20520;-76
2023/05/22 00:49:11;;;;;;;8.48;6.70;;;;;;;-140.66;100.00;55571.53;5115308;28;20032;-76
2023/05/22 00:51:57;;;;;;;9.18;6.78;;;;;;;-140.66;100.00;55571.53;5114973;28;20089;-77
2023/05/22 00:54:43;;;;;;;7.25;6.25;;;;;;;-140.66;100.00;55571.53;5099582;28;20050;-76
2023/05/22 00:57:30;;;;;;;8.68;6.68;;;;;;;-140.66;100.00;55571.53;5114044;28;20020;-76
2023/05/22 01:00:17;;;;;;;8.85;6.15;;;;;;;-140.66;100.00;55571.53;5099691;28;20481;-76
2023/05/22 01:03:06;;;;;;;8.60;6.32;;;;;;;-140.66;100.00;55571.53;5099469;28;20353;-76
2023/05/22 01:05:52;;;;;;;9.35;6.40;;;;;;;-140.66;100.00;55571.53;5114321;28;20055;-76
2023/05/22 01:08:40;;;;;;;10.15;6.88;;;;;;;-140.66;100.00;55571.53;5099621;28;20039;-76
2023/05/22 01:11:57;;;;;;;9.15;6.00;;;;;;;-140.66;100.00;55571.53;5099457;28;20431;-77
2023/05/22 01:15:01;;;;;;;8.98;6.30;;;;;;;-140.66;100.00;55571.53;5099912;28;20400;-76
2023/05/22 01:18:28;;;;;;;9.02;6.40;;;;;;;-140.66;100.00;55571.53;5099957;28;20035;-76
2023/05/22 01:21:51;;;;;;;8.88;6.20;;;;;;;-140.66;100.00;55571.53;5100096;28;20455;-76
2023/05/22 01:25:12;;;;;;;9.43;5.97;;;;;;;-140.66;100.00;55571.53;5115429;28;20027;-77
2023/05/22 01:28:16;;;;;;;12.32;6.95;;;;;;;-140.66;100.00;55571.53;5114250;28;20420;-76
2023/05/22 01:31:07;;;;;;;12.48;6.90;;;;;;;-140.66;100.00;55571.53;5115004;28;20544;-76
2023/05/22 01:33:59;;;;;;;9.43;6.95;;;;;;;-140.66;100.00;55571.53;5099301;28;20477;-76
2023/05/22 01:36:47;;;;;;;12.90;6.80;;;;;;;-140.66;100.00;55571.53;5116784;28;20434;-76
2023/05/22 01:39:35;;;;;;;8.77;7.07;;;;;;;-140.66;100.00;55571.53;5117466;28;20051;-76
2023/05/22 01:42:21;;;;;;;9.98;7.18;;;;;;;-140.66;100.00;55571.53;5117350;28;20494;-76
2023/05/22 01:45:11;;;;;;;12.40;7.40;;;;;;;-140.66;100.00;55571.53;5103102;28;20023;-77
2023/05/22 01:47:57;;;;;;;10.45;7.35;;;;;;;-140.66;100.00;55571.53;5120128;28;20031;-76
2023/05/22 01:50:44;;;;;;;9.00;7.22;;;;;;;-140.66;100.00;55571.53;5122809;28;20030;-76
2023/05/22 01:53:43;;;;;;;9.65;7.35;;;;;;;-140.66;100.00;55571.53;5119305;28;20023;-77
2023/05/22 01:56:54;;;;;;;11.48;7.57;;;;;;;-140.66;100.00;55571.53;5119698;27;20439;-77
2023/05/22 01:59:44;;;;;;;10.90;8.38;;;;;;;-140.66;100.00;55571.53;5118527;28;20290;-77
2023/05/22 02:02:33;;;;;;;11.45;8.23;;;;;;;-140.66;100.00;55571.53;5102852;28;20032;-76
2023/05/22 02:05:22;;;;;;;9.55;8.25;;;;;;;-140.66;100.00;55571.53;5117079;28;20084;-76
2023/05/22 02:08:09;;;;;;;10.20;7.68;;;;;;;-140.66;100.00;55571.53;5109717;28;20424;-76
2023/05/22 02:10:56;;;;;;;11.10;8.05;;;;;;;-140.66;100.00;55571.53;5128230;28;20394;-76
2023/05/22 02:13:42;;;;;;;10.10;7.47;;;;;;;-140.66;100.00;55571.53;5117493;28;20023;-77
2023/05/22 02:16:29;;;;;;;11.90;7.03;;;;;;;-140.66;100.00;55571.53;5116865;28;20031;-75
2023/05/22 02:19:15;;;;;;;9.38;7.70;;;;;;;-140.66;100.00;55571.53;5102059;28;20031;-77
2023/05/22 02:22:01;;;;;;;9.93;7.07;;;;;;;-140.66;100.00;55571.53;5102728;28;20028;-76
2023/05/22 02:24:48;;;;;;;8.77;7.00;;;;;;;-140.66;100.00;55571.53;5116564;28;20421;-76
2023/05/22 02:27:34;;;;;;;10.65;7.40;;;;;;;-140.66;100.00;55571.53;5102084;28;20116;-78
2023/05/22 02:30:20;;;;;;;9.32;6.60;;;;;;;-140.66;100.00;55571.53;5116894;28;20036;-77
2023/05/22 02:33:08;;;;;;;9.77;6.65;;;;;;;-140.66;100.00;55571.53;5116787;28;20027;-76
2023/05/22 02:35:53;;;;;;;11.20;7.03;;;;;;;-140.66;100.00;55571.53;5102024;28;20027;-76
2023/05/22 02:38:39;;;;;;;10.35;6.63;;;;;;;-140.66;100.00;55571.53;5116694;28;20397;-76
2023/05/22 02:41:25;;;;;;;9.27;6.55;;;;;;;-140.66;100.00;55571.53;5116539;28;20063;-76
2023/05/22 02:44:12;;;;;;;9.10;6.43;;;;;;;-140.66;100.00;55571.53;5102105;28;20051;-76
2023/05/22 02:46:58;;;;;;;10.38;6.32;;;;;;;-140.66;100.00;55571.53;5102086;28;20337;-75
2023/05/22 02:49:44;;;;;;;7.93;6.30;;;;;;;-140.66;100.00;55571.53;5116458;28;20027;-76
2023/05/22 02:52:30;;;;;;;9.68;7.00;;;;;;;-140.66;100.00;55571.53;5102304;28;20456;-75
2023/05/22 02:55:16;;;;;;;8.77;6.57;;;;;;;-140.66;100.00;55571.53;5116453;28;20031;-75
2023/05/22 02:58:02;;;;;;;12.05;7.38;;;;;;;-140.66;100.00;55571.53;5116635;28;20024;-76
2023/05/22 03:00:47;;;;;;;7.82;6.47;;;;;;;-140.66;100.00;55571.53;5116200;28;20055;-75
2023/05/22 03:03:33;;;;;;;9.55;6.80;;;;;;;-140.66;100.00;55571.53;5101329;28;20102;-75
2023/05/22 03:06:20;;;;;;;9.30;7.70;;;;;;;-140.66;100.00;55571.53;5115574;28;20459;-75
2023/05/22 03:09:07;;;;;;;13.43;6.90;;;;;;;-140.66;100.00;55571.53;5116897;28;20324;-75
2023/05/22 03:11:53;;;;;;;14.65;7.00;;;;;;;-140.66;100.00;55571.53;5116426;28;20092;-76
2023/05/22 03:14:39;;;;;;;10.73;7.15;;;;;;;-140.66;100.00;55571.53;5101666;28;20059;-75
2023/05/22 03:17:24;;;;;;;12.80;7.55;;;;;;;-140.66;100.00;55571.53;5115492;28;20027;-76
2023/05/22 03:20:15;;;;;;;10.35;6.95;;;;;;;-140.66;100.00;55571.53;5115353;28;20015;-76
2023/05/22 03:23:01;;;;;;;9.38;7.18;;;;;;;-140.66;100.00;55571.53;5115531;28;20037;-75
2023/05/22 03:25:46;;;;;;;13.13;6.88;;;;;;;-140.66;100.00;55571.53;5115900;28;20027;-75
2023/05/22 03:28:32;;;;;;;15.20;8.07;;;;;;;-140.66;100.00;55571.53;5115316;28;20090;-75
2023/05/22 03:31:18;;;;;;;15.07;7.57;;;;;;;-140.66;100.00;55571.53;5115780;28;20046;-76
2023/05/22 03:34:04;;;;;;;10.68;7.50;;;;;;;-140.66;100.00;55571.53;5115968;28;20034;-76
2023/05/22 03:36:50;;;;;;;14.35;7.75;;;;;;;-140.66;100.00;55571.53;5115428;28;20023;-75
2023/05/22 03:39:38;;;;;;;10.95;7.28;;;;;;;-140.66;100.00;55571.53;5101062;28;20023;-76
2023/05/22 03:42:24;;;;;;;14.30;8.18;;;;;;;-140.66;100.00;55571.53;5115827;28;20030;-76
2023/05/22 03:45:10;;;;;;;14.10;7.50;;;;;;;-140.66;100.00;55571.53;5100849;28;20028;-77
2023/05/22 03:47:56;;;;;;;12.18;7.75;;;;;;;-140.66;100.00;55571.53;5101093;28;20100;-76
2023/05/22 03:50:41;;;;;;;15.48;8.18;;;;;;;-140.66;100.00;55571.53;5114758;28;20016;-76
2023/05/22 03:53:28;;;;;;;12.45;8.32;;;;;;;-140.66;100.00;55571.53;5100453;28;20366;-76
2023/05/22 03:56:14;;;;;;;16.00;7.78;;;;;;;-140.66;100.00;55571.53;5100934;28;20038;-76
2023/05/22 03:58:59;;;;;;;10.70;7.40;;;;;;;-140.66;100.00;55571.53;5115953;28;20172;-76
2023/05/22 04:01:45;;;;;;;10.20;7.07;;;;;;;-140.66;100.00;55571.53;5114538;28;20023;-76
2023/05/22 04:04:32;;;;;;;10.25;6.65;;;;;;;-140.66;100.00;55571.53;5116472;28;20038;-75
2023/05/22 04:07:19;;;;;;;12.75;6.85;;;;;;;-140.66;100.00;55571.53;5114580;28;20110;-76
2023/05/22 04:10:05;;;;;;;12.32;7.03;;;;;;;-140.66;100.00;55571.53;5114478;28;20500;-76
2023/05/22 04:12:51;;;;;;;10.68;6.68;;;;;;;-140.66;100.00;55571.53;5100188;28;20038;-76
2023/05/22 04:15:37;;;;;;;9.23;6.93;;;;;;;-140.66;100.00;55571.53;5114975;28;20061;-76
2023/05/22 04:18:22;;;;;;;16.83;7.32;;;;;;;-140.66;100.00;55571.53;5100286;28;20035;-76
2023/05/22 04:21:08;;;;;;;11.73;7.38;;;;;;;-140.66;100.00;55571.53;5101867;28;20023;-75
2023/05/22 04:23:54;;;;;;;12.77;7.20;;;;;;;-140.66;100.00;55571.53;5100811;28;20092;-76
2023/05/22 04:26:40;;;;;;;15.38;8.00;;;;;;;-140.66;100.00;55571.53;5116443;28;20084;-75
2023/05/22 04:29:27;;;;;;;9.35;7.38;;;;;;;-140.66;100.00;55571.53;5115976;28;20043;-74
2023/05/22 04:32:16;;;;;;;10.50;7.22;;;;;;;-140.66;100.00;55571.53;5127236;28;20039;-75
2023/05/22 04:35:02;;;;;;;12.20;8.40;;;;;;;-140.66;100.00;55571.53;5122151;28;20097;-76
2023/05/22 04:37:49;;;;;;;13.98;8.10;;;;;;;-140.66;100.00;55571.53;5120606;28;20467;-76
2023/05/22 04:40:36;;;;;;;12.63;8.30;;;;;;;-140.66;100.00;55571.53;5115114;28;20352;-76
2023/05/22 04:43:25;;;;;;;14.57;8.00;;;;;;;-140.66;100.00;55571.53;5099945;28;20043;-76
2023/05/22 04:46:11;;;;;;;14.05;7.72;;;;;;;-140.66;100.00;55571.53;5099835;28;20070;-76
2023/05/22 04:49:00;;;;;;;9.65;6.97;;;;;;;-140.66;100.00;55571.53;5114259;28;20444;-76
2023/05/22 04:51:46;;;;;;;14.60;8.32;;;;;;;-140.66;100.00;55571.53;5099902;28;20344;-76
2023/05/22 04:54:33;;;;;;;16.58;9.35;;;;;;;-140.66;100.00;55571.53;5117974;28;20023;-78
2023/05/22 04:57:20;;;;;;;14.52;9.52;;;;;;;-140.66;100.00;55571.53;5132178;28;20119;-77
2023/05/22 05:00:07;;;;;;;13.27;9.38;;;;;;;-140.66;100.00;55571.53;5115592;28;20119;-76
2023/05/22 05:02:52;;;;;;;14.95;10.27;;;;;;;-140.66;100.00;55571.53;5114721;28;20108;-77
2023/05/22 05:05:38;;;;;;;15.38;11.05;;;;;;;-140.66;100.00;55571.53;5114083;28;20108;-77
2023/05/22 05:08:24;;;;;;;20.10;12.18;;;;;;;-140.66;100.00;55571.53;5114040;28;20023;-77
2023/05/22 05:11:10;;;;;;;16.50;11.07;;;;;;;-140.66;100.00;55571.53;5101586;28;20108;-77
2023/05/22 05:13:55;;;;;;;26.92;13.95;;;;;;;-140.66;100.00;55571.53;5117881;28;20035;-76
2023/05/22 05:16:42;;;;;;;20.85;12.10;;;;;;;-140.66;100.00;55571.53;5104137;28;20034;-76
2023/05/22 05:19:27;;;;;;;17.42;12.52;;;;;;;-140.66;100.00;55571.53;5117475;28;20397;-76
2023/05/22 05:22:13;;;;;;;28.67;12.98;;;;;;;-140.66;100.00;55571.53;5118185;28;20023;-76
2023/05/22 05:25:00;;;;;;;17.55;12.52;;;;;;;-140.66;100.00;55571.53;5119112;28;20068;-77
2023/05/22 05:27:45;;;;;;;15.73;10.82;;;;;;;-140.66;100.00;55571.53;5117472;28;20379;-76
2023/05/22 05:30:31;;;;;;;15.65;10.70;;;;;;;-140.66;100.00;55571.53;5118665;28;20119;-76
2023/05/22 05:33:18;;;;;;;13.45;10.52;;;;;;;-140.66;100.00;55571.53;5117807;28;20038;-77
2023/05/22 05:36:04;;;;;;;15.23;10.52;;;;;;;-140.66;100.00;55571.53;5118417;28;20027;-76
2023/05/22 05:38:50;;;;;;;15.77;9.30;;;;;;;-140.66;100.00;55571.53;5117310;28;20035;-76
2023/05/22 05:41:36;;;;;;;14.77;9.85;;;;;;;-140.66;100.00;55571.53;5117207;28;20027;-76
2023/05/22 05:44:21;;;;;;;15.70;10.10;;;;;;;-140.66;100.00;55571.53;5103010;28;20059;-76
2023/05/22 05:47:07;;;;;;;13.10;9.57;;;;;;;-140.66;100.00;55571.53;5102488;28;20024;-76
2023/05/22 05:49:53;;;;;;;15.32;9.70;;;;;;;-140.66;100.00;55571.53;5117936;28;20024;-75
2023/05/22 05:52:39;;;;;;;10.45;8.95;;;;;;;-140.66;100.00;55571.53;5102626;28;20110;-77
2023/05/22 05:55:24;;;;;;;15.23;9.20;;;;;;;-140.66;100.00;55571.53;5102685;28;20034;-75
2023/05/22 05:58:10;;;;;;;13.73;9.77;;;;;;;-140.66;100.00;55571.53;5102945;28;20439;-76
2023/05/22 06:00:56;;;;;;;12.80;9.20;;;;;;;-140.66;100.00;55571.53;5116741;28;20039;-76
2023/05/22 06:03:42;;;;;;;14.10;8.88;;;;;;;-140.66;100.00;55571.53;5116946;28;20031;-76
2023/05/22 06:06:29;;;;;;;14.88;9.68;;;;;;;-140.66;100.00;55571.53;5102222;28;20035;-76
2023/05/22 06:09:15;;;;;;;14.07;10.18;;;;;;;-140.66;100.00;55571.53;5117347;28;20028;-76
2023/05/22 06:12:01;;;;;;;15.32;10.75;;;;;;;-140.66;100.00;55571.53;5103200;28;20394;-75
2023/05/22 06:14:47;;;;;;;21.30;9.73;;;;;;;-140.66;100.00;55571.53;5101694;28;20023;-77
2023/05/22 06:17:34;;;;;;;22.88;10.35;;;;;;;-140.66;100.00;55571.53;5117966;28;20032;-76
2023/05/22 06:20:23;;;;;;;16.38;9.95;;;;;;;-140.66;100.00;55571.53;5117691;28;20035;-75
2023/05/22 06:23:09;;;;;;;15.75;9.45;;;;;;;-140.66;100.00;55571.53;5101281;28;20023;-77
2023/05/22 06:25:56;;;;;;;17.05;9.43;;;;;;;-140.66;100.00;55571.53;5102232;28;20024;-76
2023/05/22 06:28:42;;;;;;;13.30;8.35;;;;;;;-140.66;100.00;55571.53;5116406;28;20383;-76
2023/05/22 06:31:28;;;;;;;14.07;8.73;;;;;;;-140.66;100.00;55571.53;5102117;28;20122;-76
2023/05/22 06:34:13;;;;;;;13.50;8.05;;;;;;;-140.66;100.00;55571.53;5100970;28;20123;-76
2023/05/22 06:36:59;;;;;;;13.85;8.32;;;;;;;-140.66;100.00;55571.53;5116697;28;20039;-76
2023/05/22 06:39:45;;;;;;;21.45;8.23;;;;;;;-140.66;100.00;55571.53;5116435;28;20089;-76
2023/05/22 06:42:31;;;;;;;13.27;7.78;;;;;;;-140.66;100.00;55571.53;5116522;28;20402;-76
2023/05/22 06:45:18;;;;;;;12.93;7.60;;;;;;;-140.66;100.00;55571.53;5116827;28;20059;-75
2023/05/22 06:48:04;;;;;;;11.00;7.18;;;;;;;-140.66;100.00;55571.53;5116122;28;20375;-76
2023/05/22 06:50:50;;;;;;;11.43;6.60;;;;;;;-140.66;100.00;55571.53;5102432;28;20555;-75
2023/05/22 06:53:36;;;;;;;11.52;7.38;;;;;;;-140.66;100.00;55571.53;5116121;28;20034;-76
2023/05/22 06:56:23;;;;;;;15.00;6.82;;;;;;;-140.66;100.00;55571.53;5115687;28;20027;-76
2023/05/22 06:59:10;;;;;;;7.40;6.25;;;;;;;-140.66;100.00;55571.53;5101559;28;20038;-76
2023/05/22 07:01:56;;;;;;;11.40;6.95;;;;;;;-140.66;100.00;55571.53;5117287;28;20432;-76
2023/05/22 07:04:42;;;;;;;11.18;7.15;;;;;;;-140.66;100.00;55571.53;5101364;28;20459;-76
2023/05/22 07:07:28;;;;;;;10.52;6.53;;;;;;;-140.66;100.00;55571.53;5115510;28;20034;-76
2023/05/22 07:10:13;;;;;;;10.45;7.78;;;;;;;-140.66;100.00;55571.53;5116265;28;20020;-75
2023/05/22 07:12:59;;;;;;;18.70;6.55;;;;;;;-140.66;100.00;55571.53;5117327;28;20110;-76
2023/05/22 07:15:46;;;;;;;13.57;7.00;;;;;;;-140.66;100.00;55571.53;5115996;28;20455;-76
2023/05/22 07:18:31;;;;;;;9.43;6.50;;;;;;;-140.66;100.00;55571.53;5100923;28;20467;-75
2023/05/22 07:21:17;;;;;;;10.35;6.32;;;;;;;-140.66;100.00;55571.53;5101145;28;20422;-76
2023/05/22 07:24:07;;;;;;;7.75;6.03;;;;;;;-140.66;100.00;55571.53;5101718;28;20115;-77
2023/05/22 07:26:52;;;;;;;11.48;6.38;;;;;;;-140.66;100.00;55571.53;5100970;28;20024;-77
2023/05/22 07:29:38;;;;;;;8.45;6.00;;;;;;;-140.66;100.00;55571.53;5101737;28;20027;-76
2023/05/22 07:32:24;;;;;;;8.85;5.75;;;;;;;-140.66;100.00;55571.53;5115786;28;20031;-76
2023/05/22 07:35:10;;;;;;;9.00;6.38;;;;;;;-140.66;100.00;55571.53;5115297;28;20035;-76
2023/05/22 07:37:56;;;;;;;8.13;6.03;;;;;;;-140.66;100.00;55571.53;5116242;28;20031;-77
2023/05/22 07:40:41;;;;;;;8.48;5.70;;;;;;;-140.66;100.00;55571.53;5115632;28;20347;-77
2023/05/22 07:43:27;;;;;;;9.57;5.43;;;;;;;-140.66;100.00;55571.53;5116287;28;20023;-77
2023/05/22 07:46:13;;;;;;;9.70;5.40;;;;;;;-140.66;100.00;55571.53;5101400;28;20081;-78
2023/05/22 07:48:59;;;;;;;7.43;4.80;;;;;;;-140.66;100.00;55571.53;5114618;28;20028;-78
2023/05/22 07:51:45;;;;;;;9.77;5.43;;;;;;;-140.66;100.00;55571.53;5114598;28;20440;-78
2023/05/22 07:54:31;;;;;;;9.15;5.38;;;;;;;-140.66;100.00;55571.53;5114992;28;20078;-77
2023/05/22 07:57:17;;;;;;;10.07;5.38;;;;;;;-140.66;100.00;55571.53;5100563;28;20032;-78
2023/05/22 08:00:12;;;;;;;9.73;5.45;;;;;;;-140.66;100.00;55571.53;5100812;28;20020;-78
2023/05/22 08:02:58;;;;;;;19.35;5.68;;;;;;;-140.66;100.00;55571.53;5114755;28;20024;-78
2023/05/22 08:05:44;;;;;;;12.05;5.72;;;;;;;-140.66;100.00;55571.53;5115729;28;20034;-77
2023/05/22 08:08:29;;;;;;;15.10;5.63;;;;;;;-140.66;100.00;55571.53;5114636;28;20039;-78
2023/05/22 08:11:15;;;;;;;9.32;5.22;;;;;;;-140.66;100.00;55571.53;5114317;28;20055;-78
2023/05/22 08:14:01;;;;;;;15.00;5.63;;;;;;;-140.66;100.00;55571.53;5115322;28;20114;-78
2023/05/22 08:16:47;;;;;;;13.20;5.30;;;;;;;-140.66;100.00;55571.53;5100765;28;20110;-78
2023/05/22 08:19:33;;;;;;;13.15;5.75;;;;;;;-140.66;100.00;55571.53;5100272;28;20019;-77
2023/05/22 08:22:18;;;;;;;8.85;5.05;;;;;;;-140.66;100.00;55571.53;5114560;28;20058;-78
2023/05/22 08:25:04;;;;;;;16.92;5.68;;;;;;;-140.66;100.00;55571.53;5100198;28;20496;-77
2023/05/22 08:27:51;;;;;;;11.80;5.55;;;;;;;-140.66;100.00;55571.53;5100280;28;20075;-78
2023/05/22 08:30:37;;;;;;;7.50;5.47;;;;;;;-140.66;100.00;55571.53;5086436;28;20027;-78
2023/05/22 08:33:23;;;;;;;9.40;5.93;;;;;;;-140.66;100.00;55571.53;5101577;28;20024;-79
2023/05/22 08:36:09;;;;;;;9.15;5.72;;;;;;;-140.66;100.00;55571.53;5100853;28;20058;-79
2023/05/22 08:38:55;;;;;;;8.07;5.53;;;;;;;-140.66;100.00;55571.53;5115107;28;20051;-78
2023/05/22 08:41:42;;;;;;;10.13;6.03;;;;;;;-140.66;100.00;55571.53;5114211;28;20027;-79
2023/05/22 08:44:28;;;;;;;11.98;7.15;;;;;;;-140.66;100.00;55571.53;5100506;28;20088;-78
2023/05/22 08:47:14;;;;;;;16.20;8.00;;;;;;;-140.66;100.00;55571.53;5115382;28;20020;-79
2023/05/22 08:50:01;;;;;;;7.90;5.93;;;;;;;-140.66;100.00;55571.53;5114725;28;20034;-78
2023/05/22 08:52:50;;;;;;;10.52;6.30;;;;;;;-140.66;100.00;55571.53;5114677;28;20028;-79
2023/05/22 08:55:36;;;;;;;10.07;6.00;;;;;;;-140.66;100.00;55571.53;5114967;28;20116;-78
2023/05/22 08:58:23;;;;;;;11.00;6.20;;;;;;;-140.66;100.00;55571.53;5115399;28;20031;-79
2023/05/22 09:01:09;;;;;;;9.75;6.35;;;;;;;-140.66;100.00;55571.53;5116450;28;20032;-75
2023/05/22 09:03:59;;;;;;;10.52;7.25;;;;;;;-140.66;100.00;55571.53;5102382;28;20028;-77
2023/05/22 09:06:49;;;;;;;8.18;6.55;;;;;;;-140.66;100.00;55571.53;5115598;28;20384;-75
2023/05/22 09:09:38;;;;;;;11.10;6.45;;;;;;;-140.66;100.00;55571.53;5119499;28;20053;-75
2023/05/22 09:12:25;;;;;;;9.63;7.18;;;;;;;-140.66;100.00;55571.53;5118749;28;20030;-75
2023/05/22 09:15:12;;;;;;;22.85;7.45;;;;;;;-140.66;100.00;55571.53;5100953;28;20038;-76
2023/05/22 09:17:59;;;;;;;11.68;6.13;;;;;;;-140.66;100.00;55571.53;5100346;28;20463;-75
2023/05/22 09:20:44;;;;;;;9.82;5.68;;;;;;;-140.66;100.00;55571.53;5099746;28;20032;-76
2023/05/22 09:23:30;;;;;;;9.52;5.30;;;;;;;-140.66;100.00;55571.53;5114048;28;20088;-76
2023/05/22 09:26:16;;;;;;;12.45;5.10;;;;;;;-140.66;100.00;55571.53;5099799;28;20111;-76
2023/05/22 09:29:04;;;;;;;8.15;5.18;;;;;;;-140.66;100.00;55571.53;5113347;28;20050;-76
2023/05/22 09:31:49;;;;;;;9.70;5.65;;;;;;;-140.66;100.00;55571.53;5101175;28;20541;-75
2023/05/22 09:34:35;;;;;;;7.53;4.57;;;;;;;-140.66;100.00;55571.53;5121600;28;20049;-75
2023/05/22 09:37:21;;;;;;;7.03;4.75;;;;;;;-140.66;100.00;55571.53;5117906;28;20035;-76
2023/05/22 09:40:10;;;;;;;6.85;4.22;;;;;;;-140.66;100.00;55571.53;5128116;28;20019;-75
2023/05/22 09:42:55;;;;;;;8.27;4.35;;;;;;;-140.66;100.00;55571.53;5125380;28;20034;-76
2023/05/22 09:45:41;;;;;;;5.63;4.50;;;;;;;-140.66;100.00;55571.53;5100818;28;20038;-76
2023/05/22 09:48:27;;;;;;;6.65;5.00;;;;;;;-140.66;100.00;55571.53;5099482;28;20392;-76
2023/05/22 09:51:13;;;;;;;8.48;4.72;;;;;;;-140.66;100.00;55571.53;5113494;28;20027;-76
2023/05/22 09:54:02;;;;;;;11.85;4.80;;;;;;;-140.66;100.00;55571.53;5099290;28;20032;-76
2023/05/22 09:56:49;;;;;;;14.38;5.05;;;;;;;-140.66;100.00;55571.53;5115144;28;20111;-76
2023/05/22 09:59:39;;;;;;;7.00;4.60;;;;;;;-140.66;100.00;55571.53;5102680;28;20333;-76
2023/05/22 10:02:26;;;;;;;5.95;4.15;;;;;;;-140.66;100.00;55571.53;5117296;28;20024;-77
2023/05/22 10:05:22;;;;;;;9.85;4.35;;;;;;;-140.66;100.00;55571.53;5102971;28;20468;-76
2023/05/22 10:08:16;;;;;;;9.10;4.68;;;;;;;-140.66;100.00;55571.53;5102893;28;20080;-77
2023/05/22 10:11:02;;;;;;;8.98;4.53;;;;;;;-140.66;100.00;55571.53;5117234;28;20023;-76
2023/05/22 10:13:49;;;;;;;8.40;4.63;;;;;;;-140.66;100.00;55571.53;5102664;28;20049;-77
2023/05/22 10:16:38;;;;;;;6.57;4.72;;;;;;;-140.66;100.00;55571.53;5102923;28;20059;-76
2023/05/22 10:19:26;;;;;;;7.15;4.93;;;;;;;-140.66;100.00;55571.53;5116789;28;20118;-76
2023/05/22 10:22:19;;;;;;;7.82;4.38;;;;;;;-140.66;100.00;55571.53;5116496;28;20031;-76
2023/05/22 10:25:06;;;;;;;8.75;4.72;;;;;;;-140.66;100.00;55571.53;5116268;28;20031;-75
2023/05/22 10:27:53;;;;;;;7.78;4.15;;;;;;;-140.66;100.00;55571.53;5117074;28;20067;-77
2023/05/22 10:30:39;;;;;;;11.85;4.68;;;;;;;-140.66;100.00;55571.53;5102749;28;20088;-77
2023/05/22 10:33:30;;;;;;;5.57;4.40;;;;;;;-140.66;100.00;55571.53;5116904;28;20064;-77
2023/05/22 10:36:31;;;;;;;9.02;4.90;;;;;;;-140.66;100.00;55571.53;5116347;28;20028;-77
2023/05/22 10:39:25;;;;;;;6.10;4.40;;;;;;;-140.66;100.00;55571.53;5116398;28;20076;-77
2023/05/22 10:42:12;;;;;;;6.78;4.63;;;;;;;-140.66;100.00;55571.53;5117267;28;20046;-77
2023/05/22 10:45:03;;;;;;;7.57;4.68;;;;;;;-140.66;100.00;55571.53;5118548;28;20023;-76
2023/05/22 10:48:04;;;;;;;9.13;4.60;;;;;;;-140.66;100.00;55571.53;5103279;28;20032;-75
2023/05/22 10:50:53;;;;;;;7.00;4.40;;;;;;;-140.66;100.00;55571.53;5118984;28;20031;-77
2023/05/22 10:53:39;;;;;;;9.70;5.13;;;;;;;-140.66;100.00;55571.53;5124132;28;20099;-76
2023/05/22 10:56:34;;;;;;;6.65;4.38;;;;;;;-140.66;100.00;55571.53;5127119;28;20057;-75
2023/05/22 10:59:33;;;;;;;8.77;4.45;;;;;;;-140.66;100.00;55571.53;5113162;28;20020;-75
2023/05/22 11:02:21;;;;;;;10.57;4.68;;;;;;;-140.66;100.00;55571.53;5104676;28;20099;-75
2023/05/22 11:05:24;;;;;;;8.43;4.55;;;;;;;-140.66;100.00;55571.53;5119910;28;20031;-77
2023/05/22 11:08:31;;;;;;;9.43;4.80;;;;;;;-140.66;100.00;55571.53;5115716;28;20020;-77
2023/05/22 11:11:17;;;;;;;10.48;5.70;;;;;;;-140.66;100.00;55571.53;5114577;28;20082;-77
2023/05/22 11:14:03;;;;;;;10.07;4.82;;;;;;;-140.66;100.00;55571.53;5116503;28;20031;-79
2023/05/22 11:16:48;;;;;;;9.93;5.07;;;;;;;-140.66;100.00;55571.53;5116273;28;20046;-77
2023/05/22 11:19:34;;;;;;;5.00;4.50;;;;;;;-140.66;100.00;55571.53;5116797;28;20027;-76
2023/05/22 11:22:20;;;;;;;9.07;4.95;;;;;;;-140.66;100.00;55571.53;5116082;28;20023;-77
2023/05/22 11:25:09;;;;;;;10.60;4.70;;;;;;;-140.66;100.00;55571.53;5115508;28;20051;-77
2023/05/22 11:27:55;;;;;;;9.25;4.50;;;;;;;-140.66;100.00;55571.53;5101056;28;20050;-76
2023/05/22 11:30:42;;;;;;;10.80;4.90;;;;;;;-140.66;100.00;55571.53;5102587;28;20028;-78
2023/05/22 11:33:27;;;;;;;13.75;5.18;;;;;;;-140.66;100.00;55571.53;5116308;28;20034;-79
2023/05/22 11:36:14;;;;;;;13.15;5.10;;;;;;;-140.66;100.00;55571.53;5115483;28;20035;-79
2023/05/22 11:39:00;;;;;;;17.08;5.63;;;;;;;-140.66;100.00;55571.53;5115504;28;20055;-78
2023/05/22 11:41:46;;;;;;;14.20;6.03;;;;;;;-140.66;100.00;55571.53;5115313;28;20041;-78
2023/05/22 11:44:32;;;;;;;18.02;5.85;;;;;;;-140.66;100.00;55571.53;5114905;28;20028;-78
2023/05/22 11:47:17;;;;;;;9.52;5.38;;;;;;;-140.66;100.00;55571.53;5115190;28;20024;-78
2023/05/22 11:50:05;;;;;;;13.63;6.95;;;;;;;-140.66;100.00;55571.53;5100720;28;20124;-78
2023/05/22 11:52:52;;;;;;;15.77;5.53;;;;;;;-140.66;100.00;55571.53;5100967;28;20469;-78
2023/05/22 11:55:38;;;;;;;19.88;6.63;;;;;;;-140.66;100.00;55571.53;5115809;28;20039;-79
2023/05/22 11:58:27;;;;;;;10.90;5.90;;;;;;;-140.66;100.00;55571.53;5115573;28;20019;-78
2023/05/22 12:01:13;;;;;;;9.73;5.20;;;;;;;-140.66;100.00;55571.53;5116675;28;20019;-78
2023/05/22 12:03:59;;;;;;;8.90;5.22;;;;;;;-140.66;100.00;55571.53;5116645;28;20470;-77
2023/05/22 12:06:45;;;;;;;8.25;4.97;;;;;;;-140.66;100.00;55571.53;5115948;28;20016;-81
2023/05/22 12:09:30;;;;;;;8.52;4.72;;;;;;;-140.66;100.00;55571.53;5118958;28;20019;-76
2023/05/22 12:12:16;;;;;;;7.60;4.60;;;;;;;-140.66;100.00;55571.53;5116249;28;20431;-79
2023/05/22 12:15:06;;;;;;;14.18;4.88;;;;;;;-140.66;100.00;55571.53;5115458;28;20431;-77
2023/05/22 12:17:54;;;;;;;11.98;4.47;;;;;;;-140.66;100.00;55571.53;5115497;28;20028;-78
2023/05/22 12:20:42;;;;;;;10.40;4.28;;;;;;;-140.66;100.00;55571.53;5115277;28;20034;-78
2023/05/22 12:23:30;;;;;;;5.85;4.20;;;;;;;-140.66;100.00;55571.53;5124941;28;20038;-78
2023/05/22 12:26:18;;;;;;;11.48;4.80;;;;;;;-140.66;100.00;55571.53;5119558;28;20055;-79
2023/05/22 12:29:04;;;;;;;6.72;4.35;;;;;;;-140.66;100.00;55571.53;5117035;28;20035;-78
2023/05/22 12:31:50;;;;;;;14.38;4.47;;;;;;;-140.66;100.00;55571.53;5101028;28;20455;-78
2023/05/22 12:34:44;;;;;;;10.05;4.20;;;;;;;-140.66;100.00;55571.53;5114173;28;20031;-78
2023/05/22 12:37:32;;;;;;;5.50;4.40;;;;;;;-140.66;100.00;55571.53;5115276;28;20035;-78